Aérodrome :
LOGIN :

S'inscrire | Disclaimer

   EN    FR    IT 

 










Légende :    VFR   VFR Marginal   IFR   IFR Intensif   IFR Très Intensif
Visi : 
Plafond : 
>= 8 km
>= 3000ft
5 à 8 km
1000 à 3000 ft
1500m à 5 km
500 à 1000 ft
800 à 1500m
200 à 500 ft
< 800m
< 200 ft
Symboles :   Orages  Brouillard  Fortes neiges  Fortes précipitations  Vent > 20 kt
SIGMETs :   Divers  Orages  Givrage  Turbulence  Onde Orograph.  Cendres Volcan.







- Altitude de l'aérodrome : 194 ft
- Code IATA : LME
- Voir les cartes d'approche


LFRM - Le Mans

DERNIER METAR :
  • 141030Z AUTO 26008KT 210V280 9999 FEW033 BKN047 OVC054 21/14 Q1020 NOSIG

METARs EXPIRÉS :
  • 141000Z AUTO 28005KT 220V340 9999 FEW025 SCT030 BKN048 22/14 Q1020 NOSIG
  • 140930Z AUTO 24005KT 170V290 9999 BKN025 BKN034 BKN044 21/14 Q1020 NOSIG
  • 140900Z AUTO 28004KT 210V330 9999 BKN024 21/15 Q1020 NOSIG
  • 140830Z AUTO 27005KT 220V290 9999 BKN017 20/14 Q1019 NOSIG
  • 140800Z AUTO 30005KT 240V350 9999 BKN014 BKN019 20/15 Q1019 BECMG SCT040

TAF TAF LFRM
Valide du 14 à 06h jusqu'au 15 à 06h UTC


140500Z 1406/1506 28004KT 9999 SCT040
TEMPO 1500/1506 BKN010
Pas de NOTAMs connus pour ce terrain.



MET'MAP, la Météo Aéronautique d'un coup d'oeil ! - Copyright ORBIFLY Décembre 2007 - Disclaimer

ORBIFLY MET'MAP TEAM :

Programmation & Développement : Alexandra Zaïnal
Conception & Développement : Baudouin d'Aumeries
Co-Programmation & Développement : Marc-Olivier Méhu
Soutien technique & logistique : Manuel Goepfert

Contact : metmap@orbifly.com




SOURCES & CREDITS :

   NOAA